sensor_id;sensor_type;location;lat;lon;timestamp;pressure;altitude;pressure_sealevel;temperature;humidity
70589;BME280;58152;49.202;18.744;2023-01-26T00:01:45;97957.91;;;1.52;71.29
70589;BME280;58152;49.202;18.744;2023-01-26T00:04:11;97946.69;;;1.52;71.11
70589;BME280;58152;49.202;18.744;2023-01-26T00:06:36;97952.72;;;1.49;71.19
70589;BME280;58152;49.202;18.744;2023-01-26T00:09:02;97945.81;;;1.50;71.15
70589;BME280;58152;49.202;18.744;2023-01-26T00:11:28;97946.69;;;1.49;70.89
70589;BME280;58152;49.202;18.744;2023-01-26T00:13:56;97928.59;;;1.44;71.29
70589;BME280;58152;49.202;18.744;2023-01-26T00:16:22;97940.66;;;1.50;71.24
70589;BME280;58152;49.202;18.744;2023-01-26T00:18:48;97939.81;;;1.48;71.37
70589;BME280;58152;49.202;18.744;2023-01-26T00:21:15;97945.81;;;1.45;71.08
70589;BME280;58152;49.202;18.744;2023-01-26T00:23:41;97938.06;;;1.44;71.45
70589;BME280;58152;49.202;18.744;2023-01-26T00:26:16;97935.50;;;1.44;71.05
70589;BME280;58152;49.202;18.744;2023-01-26T00:28:42;97933.78;;;1.47;70.84
70589;BME280;58152;49.202;18.744;2023-01-26T00:31:11;97938.06;;;1.48;71.25
70589;BME280;58152;49.202;18.744;2023-01-26T00:33:37;97934.63;;;1.45;71.50
70589;BME280;58152;49.202;18.744;2023-01-26T00:36:03;97938.06;;;1.44;71.02
70589;BME280;58152;49.202;18.744;2023-01-26T00:38:29;97944.97;;;1.43;71.55
70589;BME280;58152;49.202;18.744;2023-01-26T00:40:54;97936.34;;;1.40;71.68
70589;BME280;58152;49.202;18.744;2023-01-26T00:43:20;97935.47;;;1.41;71.84
70589;BME280;58152;49.202;18.744;2023-01-26T00:45:45;97929.44;;;1.40;71.45
70589;BME280;58152;49.202;18.744;2023-01-26T00:48:11;97926.00;;;1.43;71.59
70589;BME280;58152;49.202;18.744;2023-01-26T00:50:36;97914.81;;;1.39;71.71
70589;BME280;58152;49.202;18.744;2023-01-26T00:53:02;97924.25;;;1.42;71.95
70589;BME280;58152;49.202;18.744;2023-01-26T00:55:27;97925.16;;;1.42;71.92
70589;BME280;58152;49.202;18.744;2023-01-26T00:58:00;97920.84;;;1.40;71.93
70589;BME280;58152;49.202;18.744;2023-01-26T01:00:26;97919.13;;;1.39;71.51
70589;BME280;58152;49.202;18.744;2023-01-26T01:02:52;97913.94;;;1.39;71.58
70589;BME280;58152;49.202;18.744;2023-01-26T01:05:20;97908.75;;;1.40;71.29
70589;BME280;58152;49.202;18.744;2023-01-26T01:07:46;97910.50;;;1.40;72.27
70589;BME280;58152;49.202;18.744;2023-01-26T01:10:11;97898.41;;;1.37;71.97
70589;BME280;58152;49.202;18.744;2023-01-26T01:12:36;97882.91;;;1.36;72.00
70589;BME280;58152;49.202;18.744;2023-01-26T01:15:02;97888.94;;;1.39;71.79
70589;BME280;58152;49.202;18.744;2023-01-26T01:17:27;97895.84;;;1.39;71.83
70589;BME280;58152;49.202;18.744;2023-01-26T01:19:53;97888.06;;;1.37;71.79
70589;BME280;58152;49.202;18.744;2023-01-26T01:22:18;97891.53;;;1.39;71.81
70589;BME280;58152;49.202;18.744;2023-01-26T01:24:44;97882.06;;;1.35;71.80
70589;BME280;58152;49.202;18.744;2023-01-26T01:27:09;97885.47;;;1.37;71.57
70589;BME280;58152;49.202;18.744;2023-01-26T01:29:35;97880.34;;;1.39;71.76
70589;BME280;58152;49.202;18.744;2023-01-26T01:32:00;97883.75;;;1.36;72.05
70589;BME280;58152;49.202;18.744;2023-01-26T01:34:26;97883.75;;;1.36;71.60
70589;BME280;58152;49.202;18.744;2023-01-26T01:36:51;97874.28;;;1.37;72.13
70589;BME280;58152;49.202;18.744;2023-01-26T01:39:17;97873.44;;;1.38;72.12
70589;BME280;58152;49.202;18.744;2023-01-26T01:41:42;97869.97;;;1.36;71.78
70589;BME280;58152;49.202;18.744;2023-01-26T01:46:43;97865.69;;;1.35;71.87
70589;BME280;58152;49.202;18.744;2023-01-26T01:49:27;97854.47;;;1.31;72.14
70589;BME280;58152;49.202;18.744;2023-01-26T01:54:37;97858.78;;;1.31;72.19
70589;BME280;58152;49.202;18.744;2023-01-26T01:57:07;97858.78;;;1.34;72.36
70589;BME280;58152;49.202;18.744;2023-01-26T01:59:45;97847.59;;;1.30;72.21
70589;BME280;58152;49.202;18.744;2023-01-26T02:02:14;97846.72;;;1.30;72.59
70589;BME280;58152;49.202;18.744;2023-01-26T02:04:40;97860.50;;;1.35;72.26
70589;BME280;58152;49.202;18.744;2023-01-26T02:07:06;97851.88;;;1.37;72.28
70589;BME280;58152;49.202;18.744;2023-01-26T02:09:35;97852.75;;;1.38;72.19
70589;BME280;58152;49.202;18.744;2023-01-26T02:12:25;97852.75;;;1.38;72.12
70589;BME280;58152;49.202;18.744;2023-01-26T02:14:52;97845.84;;;1.35;72.03
70589;BME280;58152;49.202;18.744;2023-01-26T02:17:18;97832.06;;;1.35;72.31
70589;BME280;58152;49.202;18.744;2023-01-26T02:19:52;97832.94;;;1.35;71.71
70589;BME280;58152;49.202;18.744;2023-01-26T02:22:35;97834.66;;;1.30;72.17
70589;BME280;58152;49.202;18.744;2023-01-26T02:25:11;97835.50;;;1.32;72.17
70589;BME280;58152;49.202;18.744;2023-01-26T02:27:40;97839.81;;;1.30;72.21
70589;BME280;58152;49.202;18.744;2023-01-26T02:30:06;97827.75;;;1.26;72.20
70589;BME280;58152;49.202;18.744;2023-01-26T02:32:32;97833.78;;;1.26;72.47
70589;BME280;58152;49.202;18.744;2023-01-26T02:34:58;97827.78;;;1.21;72.50
70589;BME280;58152;49.202;18.744;2023-01-26T02:37:23;97832.94;;;1.26;72.24
70589;BME280;58152;49.202;18.744;2023-01-26T02:39:55;97821.75;;;1.24;72.04
70589;BME280;58152;49.202;18.744;2023-01-26T02:42:24;97820.84;;;1.28;72.22
70589;BME280;58152;49.202;18.744;2023-01-26T02:45:11;97814.84;;;1.26;72.49
70589;BME280;58152;49.202;18.744;2023-01-26T02:47:38;97822.59;;;1.24;72.47
70589;BME280;58152;49.202;18.744;2023-01-26T02:50:07;97814.84;;;1.24;72.30
70589;BME280;58152;49.202;18.744;2023-01-26T02:52:33;97805.34;;;1.23;72.53
70589;BME280;58152;49.202;18.744;2023-01-26T02:54:59;97806.22;;;1.22;72.41
70589;BME280;58152;49.202;18.744;2023-01-26T02:57:43;97807.09;;;1.26;72.45
70589;BME280;58152;49.202;18.744;2023-01-26T03:00:13;97808.81;;;1.30;72.87
70589;BME280;58152;49.202;18.744;2023-01-26T03:02:39;97801.03;;;1.27;72.74
70589;BME280;58152;49.202;18.744;2023-01-26T03:05:05;97802.75;;;1.28;73.00
70589;BME280;58152;49.202;18.744;2023-01-26T03:07:31;97795.00;;;1.23;73.39
70589;BME280;58152;49.202;18.744;2023-01-26T03:09:56;97789.84;;;1.22;72.94
70589;BME280;58152;49.202;18.744;2023-01-26T03:12:25;97779.53;;;1.17;73.11
70589;BME280;58152;49.202;18.744;2023-01-26T03:14:51;97790.72;;;1.22;72.81
70589;BME280;58152;49.202;18.744;2023-01-26T03:17:36;97779.50;;;1.19;73.10
70589;BME280;58152;49.202;18.744;2023-01-26T03:20:03;97779.53;;;1.20;72.88
70589;BME280;58152;49.202;18.744;2023-01-26T03:22:47;97786.41;;;1.20;73.38
70589;BME280;58152;49.202;18.744;2023-01-26T03:25:30;97781.22;;;1.23;73.20
70589;BME280;58152;49.202;18.744;2023-01-26T03:28:14;97776.06;;;1.18;73.10
70589;BME280;58152;49.202;18.744;2023-01-26T03:30:40;97780.38;;;1.21;73.32
70589;BME280;58152;49.202;18.744;2023-01-26T03:33:05;97778.66;;;1.21;73.50
70589;BME280;58152;49.202;18.744;2023-01-26T03:35:31;97776.94;;;1.20;72.87
70589;BME280;58152;49.202;18.744;2023-01-26T03:37:57;97784.66;;;1.23;73.11
70589;BME280;58152;49.202;18.744;2023-01-26T03:40:22;97779.50;;;1.22;72.97
70589;BME280;58152;49.202;18.744;2023-01-26T03:43:10;97788.13;;;1.25;73.14
70589;BME280;58152;49.202;18.744;2023-01-26T03:45:54;97778.66;;;1.20;73.11
70589;BME280;58152;49.202;18.744;2023-01-26T03:48:37;97773.47;;;1.21;72.80
70589;BME280;58152;49.202;18.744;2023-01-26T03:51:21;97766.59;;;1.20;73.37
70589;BME280;58152;49.202;18.744;2023-01-26T03:54:05;97764.88;;;1.22;73.43
70589;BME280;58152;49.202;18.744;2023-01-26T03:56:49;97757.13;;;1.24;73.28
70589;BME280;58152;49.202;18.744;2023-01-26T03:59:15;97757.09;;;1.22;73.65
70589;BME280;58152;49.202;18.744;2023-01-26T04:01:45;97740.75;;;1.20;73.07
70589;BME280;58152;49.202;18.744;2023-01-26T04:04:29;97744.19;;;1.21;73.52
70589;BME280;58152;49.202;18.744;2023-01-26T04:07:13;97742.47;;;1.21;73.23
70589;BME280;58152;49.202;18.744;2023-01-26T04:09:57;97733.00;;;1.20;73.48
70589;BME280;58152;49.202;18.744;2023-01-26T04:12:22;97742.47;;;1.20;73.28
70589;BME280;58152;49.202;18.744;2023-01-26T04:14:48;97741.63;;;1.21;73.26
70589;BME280;58152;49.202;18.744;2023-01-26T04:17:32;97733.88;;;1.19;73.65
70589;BME280;58152;49.202;18.744;2023-01-26T04:20:16;97737.31;;;1.20;73.70
70589;BME280;58152;49.202;18.744;2023-01-26T04:23:00;97732.16;;;1.20;73.51
70589;BME280;58152;49.202;18.744;2023-01-26T04:25:26;97731.28;;;1.19;73.57
70589;BME280;58152;49.202;18.744;2023-01-26T04:27:51;97725.22;;;1.19;73.56
70589;BME280;58152;49.202;18.744;2023-01-26T04:30:17;97720.06;;;1.20;73.63
70589;BME280;58152;49.202;18.744;2023-01-26T04:32:43;97720.06;;;1.17;73.45
70589;BME280;58152;49.202;18.744;2023-01-26T04:35:10;97719.22;;;1.17;73.42
70589;BME280;58152;49.202;18.744;2023-01-26T04:37:36;97723.53;;;1.19;73.79
70589;BME280;58152;49.202;18.744;2023-01-26T04:40:02;97726.97;;;1.21;73.71
70589;BME280;58152;49.202;18.744;2023-01-26T04:42:28;97719.22;;;1.15;73.37
70589;BME280;58152;49.202;18.744;2023-01-26T04:44:53;97724.38;;;1.14;73.32
70589;BME280;58152;49.202;18.744;2023-01-26T04:47:19;97718.38;;;1.15;73.92
70589;BME280;58152;49.202;18.744;2023-01-26T04:49:45;97715.78;;;1.16;73.63
70589;BME280;58152;49.202;18.744;2023-01-26T04:52:10;97707.16;;;1.17;73.81
70589;BME280;58152;49.202;18.744;2023-01-26T04:54:36;97708.03;;;1.16;73.43
70589;BME280;58152;49.202;18.744;2023-01-26T04:57:01;97718.38;;;1.19;73.98
70589;BME280;58152;49.202;18.744;2023-01-26T04:59:26;97718.38;;;1.16;73.48
70589;BME280;58152;49.202;18.744;2023-01-26T05:01:52;97706.28;;;1.17;73.78
70589;BME280;58152;49.202;18.744;2023-01-26T05:04:18;97704.59;;;1.16;73.97
70589;BME280;58152;49.202;18.744;2023-01-26T05:06:43;97724.38;;;1.20;74.30
70589;BME280;58152;49.202;18.744;2023-01-26T05:09:09;97717.50;;;1.16;73.39
70589;BME280;58152;49.202;18.744;2023-01-26T05:11:34;97708.88;;;1.18;73.46
70589;BME280;58152;49.202;18.744;2023-01-26T05:14:00;97708.03;;;1.16;73.86
70589;BME280;58152;49.202;18.744;2023-01-26T05:16:27;97702.88;;;1.15;74.05
70589;BME280;58152;49.202;18.744;2023-01-26T05:18:53;97708.88;;;1.17;73.79
70589;BME280;58152;49.202;18.744;2023-01-26T05:21:19;97711.47;;;1.17;73.91
70589;BME280;58152;49.202;18.744;2023-01-26T05:23:44;97714.06;;;1.20;73.77
70589;BME280;58152;49.202;18.744;2023-01-26T05:26:10;97705.44;;;1.19;74.36
70589;BME280;58152;49.202;18.744;2023-01-26T05:28:36;97706.28;;;1.17;74.19
70589;BME280;58152;49.202;18.744;2023-01-26T05:31:01;97690.78;;;1.14;74.13
70589;BME280;58152;49.202;18.744;2023-01-26T05:33:27;97694.22;;;1.14;73.79
70589;BME280;58152;49.202;18.744;2023-01-26T05:35:53;97715.75;;;1.18;74.46
70589;BME280;58152;49.202;18.744;2023-01-26T05:38:18;97704.59;;;1.16;73.95
70589;BME280;58152;49.202;18.744;2023-01-26T05:40:44;97708.88;;;1.18;74.27
70589;BME280;58152;49.202;18.744;2023-01-26T05:43:11;97698.53;;;1.17;74.10
70589;BME280;58152;49.202;18.744;2023-01-26T05:45:39;97697.69;;;1.12;73.73
70589;BME280;58152;49.202;18.744;2023-01-26T05:48:05;97698.53;;;1.18;74.12
70589;BME280;58152;49.202;18.744;2023-01-26T05:50:31;97692.53;;;1.15;73.94
70589;BME280;58152;49.202;18.744;2023-01-26T05:52:56;97706.31;;;1.15;74.44
70589;BME280;58152;49.202;18.744;2023-01-26T05:55:23;97705.41;;;1.18;74.24
70589;BME280;58152;49.202;18.744;2023-01-26T05:57:48;97701.13;;;1.14;74.09
70589;BME280;58152;49.202;18.744;2023-01-26T06:00:14;97698.56;;;1.12;74.26
70589;BME280;58152;49.202;18.744;2023-01-26T06:02:40;97703.72;;;1.12;73.85
70589;BME280;58152;49.202;18.744;2023-01-26T06:05:06;97714.03;;;1.14;74.11
70589;BME280;58152;49.202;18.744;2023-01-26T06:07:32;97713.19;;;1.18;74.16
70589;BME280;58152;49.202;18.744;2023-01-26T06:09:57;97706.31;;;1.15;73.80
70589;BME280;58152;49.202;18.744;2023-01-26T06:12:23;97709.75;;;1.11;74.27
70589;BME280;58152;49.202;18.744;2023-01-26T06:14:48;97706.28;;;1.14;73.79
70589;BME280;58152;49.202;18.744;2023-01-26T06:17:15;97713.19;;;1.13;74.36
70589;BME280;58152;49.202;18.744;2023-01-26T06:19:41;97702.88;;;1.15;74.08
70589;BME280;58152;49.202;18.744;2023-01-26T06:22:11;97703.72;;;1.14;74.04
70589;BME280;58152;49.202;18.744;2023-01-26T06:24:36;97710.63;;;1.15;73.98
70589;BME280;58152;49.202;18.744;2023-01-26T06:27:02;97702.00;;;1.13;74.12
70589;BME280;58152;49.202;18.744;2023-01-26T06:29:31;97706.31;;;1.11;73.85
70589;BME280;58152;49.202;18.744;2023-01-26T06:31:56;97703.72;;;1.12;74.25
70589;BME280;58152;49.202;18.744;2023-01-26T06:34:22;97711.47;;;1.15;73.69
70589;BME280;58152;49.202;18.744;2023-01-26T06:36:47;97710.63;;;1.15;74.18
70589;BME280;58152;49.202;18.744;2023-01-26T06:39:12;97701.97;;;1.14;74.06
70589;BME280;58152;49.202;18.744;2023-01-26T06:41:39;97701.13;;;1.12;74.24
70589;BME280;58152;49.202;18.744;2023-01-26T06:44:07;97701.13;;;1.14;74.40
70589;BME280;58152;49.202;18.744;2023-01-26T06:46:32;97697.69;;;1.12;74.28
70589;BME280;58152;49.202;18.744;2023-01-26T06:49:00;97699.44;;;1.11;73.91
70589;BME280;58152;49.202;18.744;2023-01-26T06:51:46;97695.94;;;1.14;74.58
70589;BME280;58152;49.202;18.744;2023-01-26T06:54:13;97708.91;;;1.11;74.04
70589;BME280;58152;49.202;18.744;2023-01-26T06:56:38;97706.31;;;1.12;74.27
70589;BME280;58152;49.202;18.744;2023-01-26T06:59:04;97712.34;;;1.13;74.22
70589;BME280;58152;49.202;18.744;2023-01-26T07:01:34;97701.97;;;1.14;74.11
70589;BME280;58152;49.202;18.744;2023-01-26T07:04:01;97710.63;;;1.15;74.73
70589;BME280;58152;49.202;18.744;2023-01-26T07:06:26;97708.03;;;1.15;74.50
70589;BME280;58152;49.202;18.744;2023-01-26T07:08:52;97703.72;;;1.12;74.44
70589;BME280;58152;49.202;18.744;2023-01-26T07:11:17;97702.84;;;1.16;74.12
70589;BME280;58152;49.202;18.744;2023-01-26T07:13:44;97689.94;;;1.13;74.21
70589;BME280;58152;49.202;18.744;2023-01-26T07:16:11;97693.38;;;1.14;74.36
70589;BME280;58152;49.202;18.744;2023-01-26T07:18:36;97686.50;;;1.13;74.08
70589;BME280;58152;49.202;18.744;2023-01-26T07:21:02;97682.19;;;1.15;74.02
70589;BME280;58152;49.202;18.744;2023-01-26T07:23:29;97683.91;;;1.16;74.05
70589;BME280;58152;49.202;18.744;2023-01-26T07:25:54;97683.91;;;1.13;74.22
70589;BME280;58152;49.202;18.744;2023-01-26T07:28:20;97682.19;;;1.16;74.09
70589;BME280;58152;49.202;18.744;2023-01-26T07:30:47;97681.31;;;1.14;74.03
70589;BME280;58152;49.202;18.744;2023-01-26T07:33:13;97691.66;;;1.17;74.57
70589;BME280;58152;49.202;18.744;2023-01-26T07:35:38;97694.22;;;1.17;74.41
70589;BME280;58152;49.202;18.744;2023-01-26T07:38:04;97683.91;;;1.16;74.50
70589;BME280;58152;49.202;18.744;2023-01-26T07:40:30;97682.16;;;1.18;73.97
70589;BME280;58152;49.202;18.744;2023-01-26T07:42:55;97681.28;;;1.19;74.19
70589;BME280;58152;49.202;18.744;2023-01-26T07:45:21;97687.31;;;1.22;74.35
70589;BME280;58152;49.202;18.744;2023-01-26T07:47:46;97688.19;;;1.24;74.16
70589;BME280;58152;49.202;18.744;2023-01-26T07:50:12;97685.59;;;1.21;73.91
70589;BME280;58152;49.202;18.744;2023-01-26T07:52:38;97674.41;;;1.21;74.44
70589;BME280;58152;49.202;18.744;2023-01-26T07:55:04;97676.97;;;1.22;74.44
70589;BME280;58152;49.202;18.744;2023-01-26T07:57:30;97677.84;;;1.24;74.05
70589;BME280;58152;49.202;18.744;2023-01-26T07:59:56;97680.41;;;1.23;74.35
70589;BME280;58152;49.202;18.744;2023-01-26T08:02:21;97673.53;;;1.22;73.92
70589;BME280;58152;49.202;18.744;2023-01-26T08:04:47;97679.56;;;1.25;74.61
70589;BME280;58152;49.202;18.744;2023-01-26T08:07:13;97670.06;;;1.26;74.10
70589;BME280;58152;49.202;18.744;2023-01-26T08:09:39;97667.50;;;1.23;74.54
70589;BME280;58152;49.202;18.744;2023-01-26T08:12:04;97676.97;;;1.27;74.67
70589;BME280;58152;49.202;18.744;2023-01-26T08:14:30;97680.41;;;1.31;74.08
70589;BME280;58152;49.202;18.744;2023-01-26T08:16:55;97669.22;;;1.27;74.34
70589;BME280;58152;49.202;18.744;2023-01-26T08:19:21;97676.97;;;1.30;74.32
70589;BME280;58152;49.202;18.744;2023-01-26T08:21:46;97670.03;;;1.35;74.11
70589;BME280;58152;49.202;18.744;2023-01-26T08:24:12;97663.16;;;1.31;74.08
70589;BME280;58152;49.202;18.744;2023-01-26T08:26:37;97664.03;;;1.32;73.93
70589;BME280;58152;49.202;18.744;2023-01-26T08:29:03;97670.03;;;1.37;74.11
70589;BME280;58152;49.202;18.744;2023-01-26T08:31:29;97662.31;;;1.34;73.94
70589;BME280;58152;49.202;18.744;2023-01-26T08:33:55;97663.13;;;1.37;74.04
70589;BME280;58152;49.202;18.744;2023-01-26T08:36:21;97659.69;;;1.35;73.87
70589;BME280;58152;49.202;18.744;2023-01-26T08:38:46;97661.41;;;1.39;73.94
70589;BME280;58152;49.202;18.744;2023-01-26T08:41:12;97648.50;;;1.36;73.87
70589;BME280;58152;49.202;18.744;2023-01-26T08:43:38;97651.06;;;1.41;73.97
70589;BME280;58152;49.202;18.744;2023-01-26T08:46:04;97654.50;;;1.41;74.11
70589;BME280;58152;49.202;18.744;2023-01-26T08:48:30;97658.81;;;1.44;73.81
70589;BME280;58152;49.202;18.744;2023-01-26T08:51:00;97654.50;;;1.43;73.80
70589;BME280;58152;49.202;18.744;2023-01-26T08:53:29;97658.81;;;1.44;74.04
70589;BME280;58152;49.202;18.744;2023-01-26T08:55:54;97665.69;;;1.48;74.12
70589;BME280;58152;49.202;18.744;2023-01-26T08:58:20;97655.38;;;1.43;73.77
70589;BME280;58152;49.202;18.744;2023-01-26T09:00:45;97667.41;;;1.46;73.85
70589;BME280;58152;49.202;18.744;2023-01-26T09:03:11;97663.09;;;1.46;73.70
70589;BME280;58152;49.202;18.744;2023-01-26T09:05:38;97673.44;;;1.46;73.88
70589;BME280;58152;49.202;18.744;2023-01-26T09:08:05;97667.41;;;1.47;74.00
70589;BME280;58152;49.202;18.744;2023-01-26T09:10:31;97663.97;;;1.45;73.73
70589;BME280;58152;49.202;18.744;2023-01-26T09:12:58;97667.41;;;1.52;73.76
70589;BME280;58152;49.202;18.744;2023-01-26T09:15:24;97673.44;;;1.52;73.92
70589;BME280;58152;49.202;18.744;2023-01-26T09:17:50;97679.47;;;1.53;73.90
70589;BME280;58152;49.202;18.744;2023-01-26T09:20:16;97663.94;;;1.53;74.15
70589;BME280;58152;49.202;18.744;2023-01-26T09:22:42;97663.06;;;1.51;73.68
70589;BME280;58152;49.202;18.744;2023-01-26T09:25:08;97664.78;;;1.57;73.66
70589;BME280;58152;49.202;18.744;2023-01-26T09:27:34;97666.50;;;1.55;73.95
70589;BME280;58152;49.202;18.744;2023-01-26T09:29:59;97664.81;;;1.52;73.97
70589;BME280;58152;49.202;18.744;2023-01-26T09:32:25;97664.78;;;1.53;73.86
70589;BME280;58152;49.202;18.744;2023-01-26T09:34:51;97664.78;;;1.55;73.76
70589;BME280;58152;49.202;18.744;2023-01-26T09:37:16;97667.38;;;1.55;73.88
70589;BME280;58152;49.202;18.744;2023-01-26T09:39:42;97661.34;;;1.58;73.74
70589;BME280;58152;49.202;18.744;2023-01-26T09:45:13;97660.47;;;1.56;73.93
70589;BME280;58152;49.202;18.744;2023-01-26T09:48:04;97666.50;;;1.58;73.82
70589;BME280;58152;49.202;18.744;2023-01-26T09:50:49;97660.47;;;1.59;73.51
70589;BME280;58152;49.202;18.744;2023-01-26T09:53:24;97663.03;;;1.62;73.57
70589;BME280;58152;49.202;18.744;2023-01-26T09:55:52;97656.13;;;1.62;73.51
70589;BME280;58152;49.202;18.744;2023-01-26T09:58:34;97644.91;;;1.60;73.34
70589;BME280;58152;49.202;18.744;2023-01-26T10:01:02;97656.97;;;1.67;73.22
70589;BME280;58152;49.202;18.744;2023-01-26T10:03:42;97640.59;;;1.65;73.47
70589;BME280;58152;49.202;18.744;2023-01-26T10:06:25;97657.78;;;1.72;73.46
70589;BME280;58152;49.202;18.744;2023-01-26T10:08:54;97644.84;;;1.74;73.59
70589;BME280;58152;49.202;18.744;2023-01-26T10:11:35;97644.00;;;1.72;73.24
70589;BME280;58152;49.202;18.744;2023-01-26T10:14:11;97643.97;;;1.76;73.34
70589;BME280;58152;49.202;18.744;2023-01-26T10:16:38;97640.56;;;1.74;73.39
70589;BME280;58152;49.202;18.744;2023-01-26T10:19:30;97639.66;;;1.80;73.24
70589;BME280;58152;49.202;18.744;2023-01-26T10:22:00;97632.78;;;1.79;73.04
70589;BME280;58152;49.202;18.744;2023-01-26T10:24:29;97629.28;;;1.78;73.08
70589;BME280;58152;49.202;18.744;2023-01-26T10:26:57;97620.69;;;1.78;73.31
70589;BME280;58152;49.202;18.744;2023-01-26T10:29:22;97624.09;;;1.85;73.12
70589;BME280;58152;49.202;18.744;2023-01-26T10:31:48;97626.66;;;1.86;73.19
70589;BME280;58152;49.202;18.744;2023-01-26T10:36:43;97607.72;;;1.83;72.86
70589;BME280;58152;49.202;18.744;2023-01-26T10:39:13;97605.13;;;1.83;72.83
70589;BME280;58152;49.202;18.744;2023-01-26T10:41:38;97607.72;;;1.83;73.09
70589;BME280;58152;49.202;18.744;2023-01-26T10:47:01;97599.91;;;1.87;72.25
70589;BME280;58152;49.202;18.744;2023-01-26T10:49:27;97599.91;;;1.87;72.49
70589;BME280;58152;49.202;18.744;2023-01-26T10:52:17;97590.44;;;1.89;72.38
70589;BME280;58152;49.202;18.744;2023-01-26T10:54:45;97584.34;;;1.92;72.15
70589;BME280;58152;49.202;18.744;2023-01-26T10:57:27;97581.72;;;1.96;73.43
70589;BME280;58152;49.202;18.744;2023-01-26T10:59:59;97594.59;;;2.06;72.73
70589;BME280;58152;49.202;18.744;2023-01-26T11:02:28;97588.53;;;2.11;72.83
70589;BME280;58152;49.202;18.744;2023-01-26T11:05:14;97590.22;;;2.14;72.40
70589;BME280;58152;49.202;18.744;2023-01-26T11:07:45;97575.59;;;2.11;72.08
70589;BME280;58152;49.202;18.744;2023-01-26T11:12:46;97574.72;;;2.11;71.98
70589;BME280;58152;49.202;18.744;2023-01-26T11:15:23;97565.25;;;2.11;71.85
70589;BME280;58152;49.202;18.744;2023-01-26T11:17:54;97562.66;;;2.11;71.67
70589;BME280;58152;49.202;18.744;2023-01-26T11:35:14;97552.25;;;2.14;71.30
70589;BME280;58152;49.202;18.744;2023-01-26T11:37:51;97537.63;;;2.12;71.14
70589;BME280;58152;49.202;18.744;2023-01-26T11:51:51;97522.06;;;2.16;71.61
70589;BME280;58152;49.202;18.744;2023-01-26T11:57:04;97519.41;;;2.19;71.66
70589;BME280;58152;49.202;18.744;2023-01-26T11:59:41;97509.97;;;2.15;71.40
70589;BME280;58152;49.202;18.744;2023-01-26T12:04:49;97511.53;;;2.32;71.25
70589;BME280;58152;49.202;18.744;2023-01-26T12:07:29;97501.19;;;2.32;71.42
70589;BME280;58152;49.202;18.744;2023-01-26T12:10:00;97509.78;;;2.34;71.17
70589;BME280;58152;49.202;18.744;2023-01-26T12:12:37;97500.34;;;2.29;70.98
70589;BME280;58152;49.202;18.744;2023-01-26T12:15:15;97506.38;;;2.30;70.91
70589;BME280;58152;49.202;18.744;2023-01-26T12:18:05;97506.38;;;2.32;70.62
70589;BME280;58152;49.202;18.744;2023-01-26T12:20:45;97498.66;;;2.24;70.54
70589;BME280;58152;49.202;18.744;2023-01-26T12:26:18;97504.66;;;2.29;70.45
70589;BME280;58152;49.202;18.744;2023-01-26T12:31:25;97495.22;;;2.25;70.32
70589;BME280;58152;49.202;18.744;2023-01-26T12:33:53;97492.63;;;2.23;70.22
70589;BME280;58152;49.202;18.744;2023-01-26T12:44:56;97494.34;;;2.24;70.25
70589;BME280;58152;49.202;18.744;2023-01-26T12:47:39;97484.84;;;2.26;70.24
70589;BME280;58152;49.202;18.744;2023-01-26T12:52:46;97485.69;;;2.27;70.23
70589;BME280;58152;49.202;18.744;2023-01-26T12:58:01;97474.50;;;2.25;70.22
70589;BME280;58152;49.202;18.744;2023-01-26T13:00:33;97476.22;;;2.26;69.85
70589;BME280;58152;49.202;18.744;2023-01-26T13:05:56;97486.53;;;2.29;69.65
70589;BME280;58152;49.202;18.744;2023-01-26T13:11:53;97472.72;;;2.28;69.43
70589;BME280;58152;49.202;18.744;2023-01-26T13:29:59;97453.88;;;2.17;69.03
70589;BME280;58152;49.202;18.744;2023-01-26T13:34:53;97464.16;;;2.23;69.18
70589;BME280;58152;49.202;18.744;2023-01-26T13:40:28;97466.66;;;2.34;69.79
70589;BME280;58152;49.202;18.744;2023-01-26T13:48:48;97458.81;;;2.40;69.28
70589;BME280;58152;49.202;18.744;2023-01-26T13:51:23;97457.94;;;2.38;69.32
70589;BME280;58152;49.202;18.744;2023-01-26T13:54:09;97463.13;;;2.40;69.05
70589;BME280;58152;49.202;18.744;2023-01-26T13:56:38;97461.41;;;2.39;69.42
70589;BME280;58152;49.202;18.744;2023-01-26T13:59:14;97470.88;;;2.38;69.12
70589;BME280;58152;49.202;18.744;2023-01-26T14:01:49;97459.69;;;2.38;69.20
70589;BME280;58152;49.202;18.744;2023-01-26T14:04:17;97470.03;;;2.38;69.44
70589;BME280;58152;49.202;18.744;2023-01-26T14:06:47;97448.53;;;2.34;69.36
70589;BME280;58152;49.202;18.744;2023-01-26T14:09:14;97459.72;;;2.35;69.15
70589;BME280;58152;49.202;18.744;2023-01-26T14:11:40;97469.19;;;2.39;69.51
70589;BME280;58152;49.202;18.744;2023-01-26T14:14:18;97465.72;;;2.38;68.99
70589;BME280;58152;49.202;18.744;2023-01-26T14:16:46;97458.00;;;2.34;68.84
70589;BME280;58152;49.202;18.744;2023-01-26T14:19:16;97458.81;;;2.37;68.72
70589;BME280;58152;49.202;18.744;2023-01-26T14:21:50;97459.72;;;2.36;68.81
70589;BME280;58152;49.202;18.744;2023-01-26T14:24:17;97445.09;;;2.29;68.48
70589;BME280;58152;49.202;18.744;2023-01-26T14:26:42;97450.31;;;2.27;68.50
70589;BME280;58152;49.202;18.744;2023-01-26T14:29:19;97464.91;;;2.33;68.20
70589;BME280;58152;49.202;18.744;2023-01-26T14:31:48;97464.09;;;2.29;67.66
70589;BME280;58152;49.202;18.744;2023-01-26T14:34:21;97470.94;;;2.34;67.73
70589;BME280;58152;49.202;18.744;2023-01-26T14:36:47;97458.94;;;2.26;67.60
70589;BME280;58152;49.202;18.744;2023-01-26T14:39:16;97468.38;;;2.32;67.52
70589;BME280;58152;49.202;18.744;2023-01-26T14:41:59;97452.06;;;2.25;67.65
70589;BME280;58152;49.202;18.744;2023-01-26T14:47:36;97446.06;;;2.22;67.46
70589;BME280;58152;49.202;18.744;2023-01-26T14:50:18;97443.50;;;2.20;67.16
70589;BME280;58152;49.202;18.744;2023-01-26T14:52:47;97453.81;;;2.25;67.57
70589;BME280;58152;49.202;18.744;2023-01-26T14:55:34;97444.31;;;2.22;66.89